sensor_id;sensor_type;location;lat;lon;timestamp;P1;durP1;ratioP1;P2;durP2;ratioP2
42912;SDS011;50720;54.324;18.558;2023-12-20T00:02:40;2.67;;;0.95;;
42912;SDS011;50720;54.324;18.558;2023-12-20T00:05:29;1.73;;;1.00;;
42912;SDS011;50720;54.324;18.558;2023-12-20T00:08:14;1.63;;;1.40;;
42912;SDS011;50720;54.324;18.558;2023-12-20T00:10:57;1.90;;;1.23;;
42912;SDS011;50720;54.324;18.558;2023-12-20T00:13:40;1.42;;;1.30;;
42912;SDS011;50720;54.324;18.558;2023-12-20T00:16:24;1.95;;;1.33;;
42912;SDS011;50720;54.324;18.558;2023-12-20T00:19:08;1.75;;;1.13;;
42912;SDS011;50720;54.324;18.558;2023-12-20T00:21:53;1.98;;;1.05;;
42912;SDS011;50720;54.324;18.558;2023-12-20T00:24:36;1.00;;;0.90;;
42912;SDS011;50720;54.324;18.558;2023-12-20T00:27:20;2.70;;;1.38;;
42912;SDS011;50720;54.324;18.558;2023-12-20T00:30:03;2.38;;;1.02;;
42912;SDS011;50720;54.324;18.558;2023-12-20T00:32:48;1.05;;;0.95;;
42912;SDS011;50720;54.324;18.558;2023-12-20T00:35:31;1.23;;;0.90;;
42912;SDS011;50720;54.324;18.558;2023-12-20T00:38:16;2.28;;;1.15;;
42912;SDS011;50720;54.324;18.558;2023-12-20T00:41:00;2.03;;;1.10;;
42912;SDS011;50720;54.324;18.558;2023-12-20T00:43:44;1.58;;;0.98;;
42912;SDS011;50720;54.324;18.558;2023-12-20T00:46:27;0.60;;;0.55;;
42912;SDS011;50720;54.324;18.558;2023-12-20T00:49:10;1.33;;;0.80;;
42912;SDS011;50720;54.324;18.558;2023-12-20T00:51:54;1.42;;;0.68;;
42912;SDS011;50720;54.324;18.558;2023-12-20T00:54:39;1.27;;;0.90;;
42912;SDS011;50720;54.324;18.558;2023-12-20T00:57:23;2.00;;;0.60;;
42912;SDS011;50720;54.324;18.558;2023-12-20T01:00:07;2.05;;;0.40;;
42912;SDS011;50720;54.324;18.558;2023-12-20T01:02:52;0.73;;;0.47;;
42912;SDS011;50720;54.324;18.558;2023-12-20T01:05:35;1.15;;;0.40;;
42912;SDS011;50720;54.324;18.558;2023-12-20T01:08:19;1.60;;;0.40;;
42912;SDS011;50720;54.324;18.558;2023-12-20T01:11:05;1.55;;;0.40;;
42912;SDS011;50720;54.324;18.558;2023-12-20T01:13:48;0.50;;;0.30;;
42912;SDS011;50720;54.324;18.558;2023-12-20T01:16:32;0.95;;;0.30;;
42912;SDS011;50720;54.324;18.558;2023-12-20T01:19:15;5.53;;;0.90;;
42912;SDS011;50720;54.324;18.558;2023-12-20T01:21:59;0.82;;;0.30;;
42912;SDS011;50720;54.324;18.558;2023-12-20T01:24:43;1.83;;;0.38;;
42912;SDS011;50720;54.324;18.558;2023-12-20T01:27:28;4.20;;;0.47;;
42912;SDS011;50720;54.324;18.558;2023-12-20T01:30:13;4.88;;;0.60;;
42912;SDS011;50720;54.324;18.558;2023-12-20T01:32:58;1.48;;;0.50;;
42912;SDS011;50720;54.324;18.558;2023-12-20T01:35:43;1.30;;;0.30;;
42912;SDS011;50720;54.324;18.558;2023-12-20T01:38:26;2.10;;;0.40;;
42912;SDS011;50720;54.324;18.558;2023-12-20T01:41:10;3.55;;;0.40;;
42912;SDS011;50720;54.324;18.558;2023-12-20T01:43:54;2.75;;;0.70;;
42912;SDS011;50720;54.324;18.558;2023-12-20T01:46:38;3.15;;;0.63;;
42912;SDS011;50720;54.324;18.558;2023-12-20T01:49:22;2.28;;;0.70;;
42912;SDS011;50720;54.324;18.558;2023-12-20T01:52:06;1.05;;;0.43;;
42912;SDS011;50720;54.324;18.558;2023-12-20T01:54:53;2.55;;;0.60;;
42912;SDS011;50720;54.324;18.558;2023-12-20T01:57:42;3.50;;;0.60;;
42912;SDS011;50720;54.324;18.558;2023-12-20T02:00:28;3.92;;;0.85;;
42912;SDS011;50720;54.324;18.558;2023-12-20T02:03:13;3.78;;;0.68;;
42912;SDS011;50720;54.324;18.558;2023-12-20T02:05:56;2.17;;;0.57;;
42912;SDS011;50720;54.324;18.558;2023-12-20T02:08:40;5.57;;;0.80;;
42912;SDS011;50720;54.324;18.558;2023-12-20T02:11:23;4.47;;;0.70;;
42912;SDS011;50720;54.324;18.558;2023-12-20T02:14:07;1.98;;;0.65;;
42912;SDS011;50720;54.324;18.558;2023-12-20T02:16:52;2.17;;;1.02;;
42912;SDS011;50720;54.324;18.558;2023-12-20T02:19:36;3.95;;;0.95;;
42912;SDS011;50720;54.324;18.558;2023-12-20T02:22:21;10.70;;;0.90;;
42912;SDS011;50720;54.324;18.558;2023-12-20T02:25:05;5.53;;;0.82;;
42912;SDS011;50720;54.324;18.558;2023-12-20T02:27:49;3.65;;;0.95;;
42912;SDS011;50720;54.324;18.558;2023-12-20T02:30:33;6.07;;;1.38;;
42912;SDS011;50720;54.324;18.558;2023-12-20T02:33:16;4.10;;;0.90;;
42912;SDS011;50720;54.324;18.558;2023-12-20T02:36:00;4.55;;;0.82;;
42912;SDS011;50720;54.324;18.558;2023-12-20T02:38:45;5.13;;;1.83;;
42912;SDS011;50720;54.324;18.558;2023-12-20T02:41:28;4.82;;;0.82;;
42912;SDS011;50720;54.324;18.558;2023-12-20T02:44:12;5.28;;;1.63;;
42912;SDS011;50720;54.324;18.558;2023-12-20T02:46:55;6.82;;;0.82;;
42912;SDS011;50720;54.324;18.558;2023-12-20T02:49:39;9.48;;;1.10;;
42912;SDS011;50720;54.324;18.558;2023-12-20T02:52:23;6.68;;;1.17;;
42912;SDS011;50720;54.324;18.558;2023-12-20T02:55:08;11.18;;;1.27;;
42912;SDS011;50720;54.324;18.558;2023-12-20T02:57:52;7.03;;;1.20;;
42912;SDS011;50720;54.324;18.558;2023-12-20T03:00:35;8.73;;;1.50;;
42912;SDS011;50720;54.324;18.558;2023-12-20T03:03:19;10.35;;;1.48;;
42912;SDS011;50720;54.324;18.558;2023-12-20T03:06:03;6.75;;;1.20;;
42912;SDS011;50720;54.324;18.558;2023-12-20T03:08:46;4.88;;;1.85;;
42912;SDS011;50720;54.324;18.558;2023-12-20T03:11:31;8.32;;;1.42;;
42912;SDS011;50720;54.324;18.558;2023-12-20T03:14:15;8.75;;;1.60;;
42912;SDS011;50720;54.324;18.558;2023-12-20T03:16:58;5.85;;;0.88;;
42912;SDS011;50720;54.324;18.558;2023-12-20T03:19:42;10.73;;;1.30;;
42912;SDS011;50720;54.324;18.558;2023-12-20T03:22:25;11.70;;;1.23;;
42912;SDS011;50720;54.324;18.558;2023-12-20T03:25:09;4.03;;;1.00;;
42912;SDS011;50720;54.324;18.558;2023-12-20T03:27:54;6.65;;;1.10;;
42912;SDS011;50720;54.324;18.558;2023-12-20T03:30:37;7.72;;;0.98;;
42912;SDS011;50720;54.324;18.558;2023-12-20T03:33:21;9.82;;;1.50;;
42912;SDS011;50720;54.324;18.558;2023-12-20T03:36:05;11.38;;;1.38;;
42912;SDS011;50720;54.324;18.558;2023-12-20T03:38:49;7.30;;;1.10;;
42912;SDS011;50720;54.324;18.558;2023-12-20T03:41:32;10.07;;;1.77;;
42912;SDS011;50720;54.324;18.558;2023-12-20T03:44:17;1.95;;;0.85;;
42912;SDS011;50720;54.324;18.558;2023-12-20T03:47:02;9.85;;;1.67;;
42912;SDS011;50720;54.324;18.558;2023-12-20T03:49:45;10.32;;;1.50;;
42912;SDS011;50720;54.324;18.558;2023-12-20T03:52:29;4.60;;;1.27;;
42912;SDS011;50720;54.324;18.558;2023-12-20T03:55:13;6.15;;;1.10;;
42912;SDS011;50720;54.324;18.558;2023-12-20T03:57:56;12.43;;;2.15;;
42912;SDS011;50720;54.324;18.558;2023-12-20T04:00:41;8.13;;;1.13;;
42912;SDS011;50720;54.324;18.558;2023-12-20T04:03:25;6.13;;;1.60;;
42912;SDS011;50720;54.324;18.558;2023-12-20T04:06:09;12.18;;;1.80;;
42912;SDS011;50720;54.324;18.558;2023-12-20T04:08:52;10.30;;;1.65;;
42912;SDS011;50720;54.324;18.558;2023-12-20T04:11:36;9.82;;;3.17;;
42912;SDS011;50720;54.324;18.558;2023-12-20T04:14:19;7.22;;;1.30;;
42912;SDS011;50720;54.324;18.558;2023-12-20T04:17:04;10.98;;;2.78;;
42912;SDS011;50720;54.324;18.558;2023-12-20T04:19:48;7.97;;;1.48;;
42912;SDS011;50720;54.324;18.558;2023-12-20T04:22:32;7.53;;;2.83;;
42912;SDS011;50720;54.324;18.558;2023-12-20T04:25:15;6.78;;;1.48;;
42912;SDS011;50720;54.324;18.558;2023-12-20T04:27:59;8.70;;;1.63;;
42912;SDS011;50720;54.324;18.558;2023-12-20T04:30:43;11.80;;;1.42;;
42912;SDS011;50720;54.324;18.558;2023-12-20T04:33:27;5.28;;;1.55;;
42912;SDS011;50720;54.324;18.558;2023-12-20T04:36:11;8.35;;;1.55;;
42912;SDS011;50720;54.324;18.558;2023-12-20T04:38:54;7.82;;;1.25;;
42912;SDS011;50720;54.324;18.558;2023-12-20T04:41:38;7.22;;;1.52;;
42912;SDS011;50720;54.324;18.558;2023-12-20T04:44:22;14.38;;;1.95;;
42912;SDS011;50720;54.324;18.558;2023-12-20T04:47:05;8.70;;;1.45;;
42912;SDS011;50720;54.324;18.558;2023-12-20T04:49:50;5.60;;;1.25;;
42912;SDS011;50720;54.324;18.558;2023-12-20T04:52:34;5.35;;;1.63;;
42912;SDS011;50720;54.324;18.558;2023-12-20T04:55:17;10.38;;;2.30;;
42912;SDS011;50720;54.324;18.558;2023-12-20T04:58:00;4.82;;;1.90;;
42912;SDS011;50720;54.324;18.558;2023-12-20T05:00:44;10.07;;;1.88;;
42912;SDS011;50720;54.324;18.558;2023-12-20T05:03:28;11.55;;;1.52;;
42912;SDS011;50720;54.324;18.558;2023-12-20T05:06:13;6.43;;;1.40;;
42912;SDS011;50720;54.324;18.558;2023-12-20T05:08:57;2.88;;;1.13;;
42912;SDS011;50720;54.324;18.558;2023-12-20T05:11:40;9.65;;;1.80;;
42912;SDS011;50720;54.324;18.558;2023-12-20T05:14:25;9.30;;;2.00;;
42912;SDS011;50720;54.324;18.558;2023-12-20T05:17:08;6.55;;;1.67;;
42912;SDS011;50720;54.324;18.558;2023-12-20T05:19:52;23.42;;;3.13;;
42912;SDS011;50720;54.324;18.558;2023-12-20T05:22:37;9.55;;;1.70;;
42912;SDS011;50720;54.324;18.558;2023-12-20T05:25:20;6.25;;;1.42;;
42912;SDS011;50720;54.324;18.558;2023-12-20T05:28:04;6.97;;;1.25;;
42912;SDS011;50720;54.324;18.558;2023-12-20T05:30:48;7.78;;;1.30;;
42912;SDS011;50720;54.324;18.558;2023-12-20T05:33:31;4.32;;;1.20;;
42912;SDS011;50720;54.324;18.558;2023-12-20T05:36:15;6.28;;;2.10;;
42912;SDS011;50720;54.324;18.558;2023-12-20T05:39:01;8.80;;;1.67;;
42912;SDS011;50720;54.324;18.558;2023-12-20T05:41:45;6.18;;;1.48;;
42912;SDS011;50720;54.324;18.558;2023-12-20T05:44:29;4.10;;;1.15;;
42912;SDS011;50720;54.324;18.558;2023-12-20T05:47:12;8.25;;;2.25;;
42912;SDS011;50720;54.324;18.558;2023-12-20T05:49:56;5.45;;;1.63;;
42912;SDS011;50720;54.324;18.558;2023-12-20T05:52:39;6.20;;;1.50;;
42912;SDS011;50720;54.324;18.558;2023-12-20T05:55:24;5.57;;;2.20;;
42912;SDS011;50720;54.324;18.558;2023-12-20T05:58:07;14.65;;;2.17;;
42912;SDS011;50720;54.324;18.558;2023-12-20T06:00:51;6.80;;;2.08;;
42912;SDS011;50720;54.324;18.558;2023-12-20T06:03:34;5.07;;;1.83;;
42912;SDS011;50720;54.324;18.558;2023-12-20T06:06:18;7.70;;;2.20;;
42912;SDS011;50720;54.324;18.558;2023-12-20T06:09:01;6.97;;;2.00;;
42912;SDS011;50720;54.324;18.558;2023-12-20T06:11:47;6.10;;;1.92;;
42912;SDS011;50720;54.324;18.558;2023-12-20T06:14:30;7.82;;;2.17;;
42912;SDS011;50720;54.324;18.558;2023-12-20T06:17:13;8.02;;;2.15;;
42912;SDS011;50720;54.324;18.558;2023-12-20T06:19:57;8.35;;;2.47;;
42912;SDS011;50720;54.324;18.558;2023-12-20T06:22:41;15.63;;;3.63;;
42912;SDS011;50720;54.324;18.558;2023-12-20T06:25:25;10.75;;;2.03;;
42912;SDS011;50720;54.324;18.558;2023-12-20T06:28:10;7.00;;;1.90;;
42912;SDS011;50720;54.324;18.558;2023-12-20T06:30:56;12.35;;;2.47;;
42912;SDS011;50720;54.324;18.558;2023-12-20T06:33:39;15.43;;;3.28;;
42912;SDS011;50720;54.324;18.558;2023-12-20T06:36:23;7.85;;;2.05;;
42912;SDS011;50720;54.324;18.558;2023-12-20T06:39:07;8.63;;;2.25;;
42912;SDS011;50720;54.324;18.558;2023-12-20T06:41:50;7.32;;;1.98;;
42912;SDS011;50720;54.324;18.558;2023-12-20T06:44:35;8.27;;;1.75;;
42912;SDS011;50720;54.324;18.558;2023-12-20T06:47:19;7.95;;;2.42;;
42912;SDS011;50720;54.324;18.558;2023-12-20T06:50:02;6.90;;;1.88;;
42912;SDS011;50720;54.324;18.558;2023-12-20T06:52:46;11.57;;;2.50;;
42912;SDS011;50720;54.324;18.558;2023-12-20T06:55:30;7.85;;;1.98;;
42912;SDS011;50720;54.324;18.558;2023-12-20T06:58:14;5.93;;;1.70;;
42912;SDS011;50720;54.324;18.558;2023-12-20T07:00:59;10.77;;;2.58;;
42912;SDS011;50720;54.324;18.558;2023-12-20T07:03:43;7.20;;;1.50;;
42912;SDS011;50720;54.324;18.558;2023-12-20T07:06:27;10.48;;;1.67;;
42912;SDS011;50720;54.324;18.558;2023-12-20T07:09:10;12.57;;;1.75;;
42912;SDS011;50720;54.324;18.558;2023-12-20T07:11:54;6.13;;;1.83;;
42912;SDS011;50720;54.324;18.558;2023-12-20T07:14:38;5.85;;;1.65;;
42912;SDS011;50720;54.324;18.558;2023-12-20T07:17:23;10.02;;;2.45;;
42912;SDS011;50720;54.324;18.558;2023-12-20T07:20:08;13.07;;;2.20;;
42912;SDS011;50720;54.324;18.558;2023-12-20T07:22:52;6.38;;;1.90;;
42912;SDS011;50720;54.324;18.558;2023-12-20T07:25:36;9.18;;;2.13;;
42912;SDS011;50720;54.324;18.558;2023-12-20T07:28:20;8.60;;;1.95;;
42912;SDS011;50720;54.324;18.558;2023-12-20T07:31:03;5.68;;;2.67;;
42912;SDS011;50720;54.324;18.558;2023-12-20T07:33:49;17.05;;;2.33;;
42912;SDS011;50720;54.324;18.558;2023-12-20T07:36:34;9.38;;;2.08;;
42912;SDS011;50720;54.324;18.558;2023-12-20T07:39:18;9.60;;;2.08;;
42912;SDS011;50720;54.324;18.558;2023-12-20T07:42:01;13.13;;;2.75;;
42912;SDS011;50720;54.324;18.558;2023-12-20T07:44:45;10.80;;;2.00;;
42912;SDS011;50720;54.324;18.558;2023-12-20T07:47:29;12.32;;;3.58;;
42912;SDS011;50720;54.324;18.558;2023-12-20T07:50:14;10.45;;;2.40;;
42912;SDS011;50720;54.324;18.558;2023-12-20T07:52:58;9.20;;;2.50;;
42912;SDS011;50720;54.324;18.558;2023-12-20T07:55:42;6.38;;;1.92;;
42912;SDS011;50720;54.324;18.558;2023-12-20T07:58:25;7.63;;;1.90;;
42912;SDS011;50720;54.324;18.558;2023-12-20T08:01:30;12.77;;;2.47;;
42912;SDS011;50720;54.324;18.558;2023-12-20T08:04:14;11.45;;;2.22;;
42912;SDS011;50720;54.324;18.558;2023-12-20T08:06:59;8.02;;;1.90;;
42912;SDS011;50720;54.324;18.558;2023-12-20T08:09:43;5.20;;;2.00;;
42912;SDS011;50720;54.324;18.558;2023-12-20T08:12:27;5.35;;;1.42;;
42912;SDS011;50720;54.324;18.558;2023-12-20T08:15:10;8.52;;;1.95;;
42912;SDS011;50720;54.324;18.558;2023-12-20T08:17:53;9.68;;;2.08;;
42912;SDS011;50720;54.324;18.558;2023-12-20T08:20:37;7.30;;;2.70;;
42912;SDS011;50720;54.324;18.558;2023-12-20T08:23:23;6.45;;;1.65;;
42912;SDS011;50720;54.324;18.558;2023-12-20T08:26:08;12.50;;;1.70;;
42912;SDS011;50720;54.324;18.558;2023-12-20T08:28:52;4.65;;;1.65;;
42912;SDS011;50720;54.324;18.558;2023-12-20T08:31:37;4.95;;;1.27;;
42912;SDS011;50720;54.324;18.558;2023-12-20T08:34:21;9.15;;;1.40;;
42912;SDS011;50720;54.324;18.558;2023-12-20T08:37:05;8.02;;;1.08;;
42912;SDS011;50720;54.324;18.558;2023-12-20T08:39:50;4.85;;;1.48;;
42912;SDS011;50720;54.324;18.558;2023-12-20T08:42:35;2.42;;;1.00;;
42912;SDS011;50720;54.324;18.558;2023-12-20T08:45:19;3.20;;;1.38;;
42912;SDS011;50720;54.324;18.558;2023-12-20T08:48:02;17.45;;;2.63;;
42912;SDS011;50720;54.324;18.558;2023-12-20T08:50:50;5.43;;;1.15;;
42912;SDS011;50720;54.324;18.558;2023-12-20T08:53:33;12.10;;;1.25;;
42912;SDS011;50720;54.324;18.558;2023-12-20T08:56:19;7.03;;;1.23;;
42912;SDS011;50720;54.324;18.558;2023-12-20T08:59:02;3.97;;;1.20;;
42912;SDS011;50720;54.324;18.558;2023-12-20T09:01:46;11.40;;;1.90;;
42912;SDS011;50720;54.324;18.558;2023-12-20T09:04:35;7.38;;;1.67;;
42912;SDS011;50720;54.324;18.558;2023-12-20T09:07:23;5.53;;;1.20;;
42912;SDS011;50720;54.324;18.558;2023-12-20T09:10:07;10.20;;;1.70;;
42912;SDS011;50720;54.324;18.558;2023-12-20T09:12:52;4.57;;;1.90;;
42912;SDS011;50720;54.324;18.558;2023-12-20T09:15:38;8.32;;;1.55;;
42912;SDS011;50720;54.324;18.558;2023-12-20T09:18:22;11.70;;;1.48;;
42912;SDS011;50720;54.324;18.558;2023-12-20T09:21:05;8.55;;;1.80;;
42912;SDS011;50720;54.324;18.558;2023-12-20T09:23:49;5.28;;;1.42;;
42912;SDS011;50720;54.324;18.558;2023-12-20T09:26:32;8.93;;;3.10;;
42912;SDS011;50720;54.324;18.558;2023-12-20T09:29:17;7.63;;;2.58;;
42912;SDS011;50720;54.324;18.558;2023-12-20T09:32:01;6.15;;;2.35;;
42912;SDS011;50720;54.324;18.558;2023-12-20T09:34:44;9.00;;;2.30;;
42912;SDS011;50720;54.324;18.558;2023-12-20T09:37:29;8.55;;;2.60;;
42912;SDS011;50720;54.324;18.558;2023-12-20T09:40:13;4.32;;;1.75;;
42912;SDS011;50720;54.324;18.558;2023-12-20T09:42:57;6.30;;;1.83;;
42912;SDS011;50720;54.324;18.558;2023-12-20T09:45:46;7.20;;;1.98;;
42912;SDS011;50720;54.324;18.558;2023-12-20T09:48:30;8.05;;;1.90;;
42912;SDS011;50720;54.324;18.558;2023-12-20T09:51:16;10.45;;;2.10;;
42912;SDS011;50720;54.324;18.558;2023-12-20T09:54:00;3.65;;;1.38;;
42912;SDS011;50720;54.324;18.558;2023-12-20T09:56:45;2.92;;;1.38;;
42912;SDS011;50720;54.324;18.558;2023-12-20T09:59:29;7.00;;;3.20;;
42912;SDS011;50720;54.324;18.558;2023-12-20T10:02:14;7.25;;;2.08;;
42912;SDS011;50720;54.324;18.558;2023-12-20T10:05:06;5.05;;;1.60;;
42912;SDS011;50720;54.324;18.558;2023-12-20T10:07:56;6.72;;;1.48;;
42912;SDS011;50720;54.324;18.558;2023-12-20T10:10:41;5.22;;;1.48;;
42912;SDS011;50720;54.324;18.558;2023-12-20T10:13:29;2.67;;;1.30;;
42912;SDS011;50720;54.324;18.558;2023-12-20T10:16:12;7.97;;;2.03;;
42912;SDS011;50720;54.324;18.558;2023-12-20T10:18:57;9.30;;;2.30;;
42912;SDS011;50720;54.324;18.558;2023-12-20T10:21:41;4.95;;;1.75;;
42912;SDS011;50720;54.324;18.558;2023-12-20T10:24:25;7.47;;;1.60;;
42912;SDS011;50720;54.324;18.558;2023-12-20T10:27:10;4.45;;;1.80;;
42912;SDS011;50720;54.324;18.558;2023-12-20T10:29:54;7.20;;;2.22;;
42912;SDS011;50720;54.324;18.558;2023-12-20T10:32:37;7.32;;;1.98;;
42912;SDS011;50720;54.324;18.558;2023-12-20T10:35:23;6.20;;;2.00;;
42912;SDS011;50720;54.324;18.558;2023-12-20T10:38:07;5.43;;;1.35;;
42912;SDS011;50720;54.324;18.558;2023-12-20T10:40:52;6.85;;;2.00;;
42912;SDS011;50720;54.324;18.558;2023-12-20T10:43:40;6.88;;;2.20;;
42912;SDS011;50720;54.324;18.558;2023-12-20T10:46:24;14.48;;;2.85;;
42912;SDS011;50720;54.324;18.558;2023-12-20T10:49:09;8.13;;;2.70;;
42912;SDS011;50720;54.324;18.558;2023-12-20T10:51:55;4.82;;;1.98;;
42912;SDS011;50720;54.324;18.558;2023-12-20T10:54:44;5.90;;;2.10;;
42912;SDS011;50720;54.324;18.558;2023-12-20T10:57:27;13.93;;;3.78;;
42912;SDS011;50720;54.324;18.558;2023-12-20T11:00:12;7.03;;;2.40;;
42912;SDS011;50720;54.324;18.558;2023-12-20T11:02:59;7.20;;;3.15;;
42912;SDS011;50720;54.324;18.558;2023-12-20T11:05:45;6.78;;;2.80;;
42912;SDS011;50720;54.324;18.558;2023-12-20T11:08:35;9.75;;;2.90;;
42912;SDS011;50720;54.324;18.558;2023-12-20T11:11:25;7.13;;;3.17;;
42912;SDS011;50720;54.324;18.558;2023-12-20T11:14:14;9.20;;;3.10;;
42912;SDS011;50720;54.324;18.558;2023-12-20T11:17:08;6.03;;;3.40;;
42912;SDS011;50720;54.324;18.558;2023-12-20T11:20:06;8.98;;;3.08;;
42912;SDS011;50720;54.324;18.558;2023-12-20T11:22:54;8.30;;;2.85;;
42912;SDS011;50720;54.324;18.558;2023-12-20T11:25:47;6.32;;;3.58;;
42912;SDS011;50720;54.324;18.558;2023-12-20T11:28:31;7.00;;;3.58;;
42912;SDS011;50720;54.324;18.558;2023-12-20T11:31:14;6.10;;;3.20;;
42912;SDS011;50720;54.324;18.558;2023-12-20T11:34:07;10.60;;;3.78;;
42912;SDS011;50720;54.324;18.558;2023-12-20T11:36:57;3.92;;;2.70;;
42912;SDS011;50720;54.324;18.558;2023-12-20T11:39:42;6.78;;;3.00;;
42912;SDS011;50720;54.324;18.558;2023-12-20T11:42:27;7.47;;;3.78;;
42912;SDS011;50720;54.324;18.558;2023-12-20T11:45:15;6.10;;;2.80;;
42912;SDS011;50720;54.324;18.558;2023-12-20T11:48:01;9.68;;;2.85;;
42912;SDS011;50720;54.324;18.558;2023-12-20T11:50:45;8.48;;;3.28;;
42912;SDS011;50720;54.324;18.558;2023-12-20T11:53:28;6.30;;;3.40;;
42912;SDS011;50720;54.324;18.558;2023-12-20T11:56:13;6.85;;;4.00;;
42912;SDS011;50720;54.324;18.558;2023-12-20T11:58:58;6.47;;;3.47;;
42912;SDS011;50720;54.324;18.558;2023-12-20T12:02:00;4.10;;;2.42;;
42912;SDS011;50720;54.324;18.558;2023-12-20T12:04:45;4.60;;;2.42;;
42912;SDS011;50720;54.324;18.558;2023-12-20T12:07:33;8.80;;;1.90;;
42912;SDS011;50720;54.324;18.558;2023-12-20T12:10:17;4.60;;;1.80;;
42912;SDS011;50720;54.324;18.558;2023-12-20T12:13:01;3.60;;;2.10;;
42912;SDS011;50720;54.324;18.558;2023-12-20T12:15:46;6.82;;;2.95;;
42912;SDS011;50720;54.324;18.558;2023-12-20T12:18:31;6.70;;;2.47;;
42912;SDS011;50720;54.324;18.558;2023-12-20T12:21:18;2.13;;;1.70;;
42912;SDS011;50720;54.324;18.558;2023-12-20T12:24:07;6.35;;;2.85;;
42912;SDS011;50720;54.324;18.558;2023-12-20T12:26:51;5.45;;;1.48;;
42912;SDS011;50720;54.324;18.558;2023-12-20T12:29:35;2.88;;;1.50;;
42912;SDS011;50720;54.324;18.558;2023-12-20T12:32:20;6.22;;;2.03;;
42912;SDS011;50720;54.324;18.558;2023-12-20T12:35:04;4.40;;;1.92;;
42912;SDS011;50720;54.324;18.558;2023-12-20T12:37:50;2.55;;;1.52;;
42912;SDS011;50720;54.324;18.558;2023-12-20T12:40:34;3.42;;;1.38;;
42912;SDS011;50720;54.324;18.558;2023-12-20T12:43:18;1.80;;;1.30;;
42912;SDS011;50720;54.324;18.558;2023-12-20T12:46:04;2.00;;;1.02;;
42912;SDS011;50720;54.324;18.558;2023-12-20T12:48:49;1.80;;;1.13;;
42912;SDS011;50720;54.324;18.558;2023-12-20T12:51:32;2.42;;;0.93;;
42912;SDS011;50720;54.324;18.558;2023-12-20T12:54:16;2.75;;;1.17;;
42912;SDS011;50720;54.324;18.558;2023-12-20T12:56:59;2.90;;;2.05;;
42912;SDS011;50720;54.324;18.558;2023-12-20T12:59:43;4.32;;;1.17;;
42912;SDS011;50720;54.324;18.558;2023-12-20T13:02:28;2.42;;;1.95;;
42912;SDS011;50720;54.324;18.558;2023-12-20T13:05:13;1.55;;;1.15;;
42912;SDS011;50720;54.324;18.558;2023-12-20T13:07:57;3.78;;;1.60;;
42912;SDS011;50720;54.324;18.558;2023-12-20T13:10:41;2.28;;;1.23;;
42912;SDS011;50720;54.324;18.558;2023-12-20T13:13:24;2.35;;;1.30;;
42912;SDS011;50720;54.324;18.558;2023-12-20T13:16:08;2.38;;;1.38;;
42912;SDS011;50720;54.324;18.558;2023-12-20T13:18:51;1.77;;;0.77;;
42912;SDS011;50720;54.324;18.558;2023-12-20T13:21:36;2.50;;;0.85;;
42912;SDS011;50720;54.324;18.558;2023-12-20T13:24:21;2.40;;;1.23;;
42912;SDS011;50720;54.324;18.558;2023-12-20T13:27:05;1.98;;;0.90;;
42912;SDS011;50720;54.324;18.558;2023-12-20T13:29:48;2.15;;;1.20;;
42912;SDS011;50720;54.324;18.558;2023-12-20T13:32:32;1.83;;;1.20;;
42912;SDS011;50720;54.324;18.558;2023-12-20T13:35:17;1.45;;;0.80;;
42912;SDS011;50720;54.324;18.558;2023-12-20T13:38:03;0.73;;;0.70;;
42912;SDS011;50720;54.324;18.558;2023-12-20T13:40:49;6.07;;;1.10;;
42912;SDS011;50720;54.324;18.558;2023-12-20T13:43:32;1.55;;;0.60;;
42912;SDS011;50720;54.324;18.558;2023-12-20T13:46:17;0.82;;;0.60;;
42912;SDS011;50720;54.324;18.558;2023-12-20T13:49:01;2.25;;;0.77;;
42912;SDS011;50720;54.324;18.558;2023-12-20T13:51:44;1.60;;;1.40;;
42912;SDS011;50720;54.324;18.558;2023-12-20T13:54:30;2.35;;;0.77;;
42912;SDS011;50720;54.324;18.558;2023-12-20T13:57:14;1.75;;;0.95;;
42912;SDS011;50720;54.324;18.558;2023-12-20T14:00:17;1.98;;;1.10;;
42912;SDS011;50720;54.324;18.558;2023-12-20T14:03:02;2.47;;;0.70;;
42912;SDS011;50720;54.324;18.558;2023-12-20T14:05:46;0.73;;;0.60;;
42912;SDS011;50720;54.324;18.558;2023-12-20T14:08:29;2.25;;;0.80;;
42912;SDS011;50720;54.324;18.558;2023-12-20T14:11:14;0.88;;;0.77;;
42912;SDS011;50720;54.324;18.558;2023-12-20T14:13:59;0.88;;;0.70;;
42912;SDS011;50720;54.324;18.558;2023-12-20T14:16:43;2.17;;;1.00;;
42912;SDS011;50720;54.324;18.558;2023-12-20T14:19:27;1.55;;;0.80;;
42912;SDS011;50720;54.324;18.558;2023-12-20T14:22:10;1.23;;;0.85;;
42912;SDS011;50720;54.324;18.558;2023-12-20T14:24:58;1.90;;;0.90;;
42912;SDS011;50720;54.324;18.558;2023-12-20T14:27:43;3.25;;;0.98;;
42912;SDS011;50720;54.324;18.558;2023-12-20T14:30:27;1.63;;;1.05;;
42912;SDS011;50720;54.324;18.558;2023-12-20T14:33:11;1.42;;;0.80;;
42912;SDS011;50720;54.324;18.558;2023-12-20T14:35:55;6.40;;;1.38;;
42912;SDS011;50720;54.324;18.558;2023-12-20T14:38:38;3.58;;;1.70;;
42912;SDS011;50720;54.324;18.558;2023-12-20T14:41:22;2.10;;;1.50;;
42912;SDS011;50720;54.324;18.558;2023-12-20T14:44:08;1.17;;;0.80;;
42912;SDS011;50720;54.324;18.558;2023-12-20T14:46:52;3.03;;;1.42;;
42912;SDS011;50720;54.324;18.558;2023-12-20T14:49:35;2.65;;;1.45;;
42912;SDS011;50720;54.324;18.558;2023-12-20T14:52:19;4.07;;;1.50;;
42912;SDS011;50720;54.324;18.558;2023-12-20T14:55:03;2.95;;;2.03;;
42912;SDS011;50720;54.324;18.558;2023-12-20T14:57:47;3.00;;;1.65;;
42912;SDS011;50720;54.324;18.558;2023-12-20T15:00:33;4.63;;;1.60;;
42912;SDS011;50720;54.324;18.558;2023-12-20T15:03:16;5.78;;;2.22;;
42912;SDS011;50720;54.324;18.558;2023-12-20T15:06:00;2.85;;;1.58;;
42912;SDS011;50720;54.324;18.558;2023-12-20T15:08:44;2.97;;;1.80;;
42912;SDS011;50720;54.324;18.558;2023-12-20T15:11:27;2.08;;;1.88;;
42912;SDS011;50720;54.324;18.558;2023-12-20T15:14:11;3.55;;;1.90;;
42912;SDS011;50720;54.324;18.558;2023-12-20T15:17:01;3.22;;;1.67;;
42912;SDS011;50720;54.324;18.558;2023-12-20T15:19:44;2.67;;;1.77;;
42912;SDS011;50720;54.324;18.558;2023-12-20T15:22:28;2.60;;;1.70;;
42912;SDS011;50720;54.324;18.558;2023-12-20T15:25:12;2.38;;;1.77;;
42912;SDS011;50720;54.324;18.558;2023-12-20T15:28:01;3.72;;;1.70;;
42912;SDS011;50720;54.324;18.558;2023-12-20T15:30:44;3.08;;;1.75;;
42912;SDS011;50720;54.324;18.558;2023-12-20T15:33:30;7.05;;;1.70;;
42912;SDS011;50720;54.324;18.558;2023-12-20T15:36:14;3.15;;;1.90;;
42912;SDS011;50720;54.324;18.558;2023-12-20T15:38:57;3.47;;;1.83;;
42912;SDS011;50720;54.324;18.558;2023-12-20T15:41:41;2.40;;;1.67;;
42912;SDS011;50720;54.324;18.558;2023-12-20T15:44:25;4.28;;;1.77;;
42912;SDS011;50720;54.324;18.558;2023-12-20T15:47:08;2.78;;;2.08;;
42912;SDS011;50720;54.324;18.558;2023-12-20T15:49:53;2.60;;;2.08;;
42912;SDS011;50720;54.324;18.558;2023-12-20T15:52:37;4.22;;;3.30;;
42912;SDS011;50720;54.324;18.558;2023-12-20T15:55:21;6.18;;;2.90;;
42912;SDS011;50720;54.324;18.558;2023-12-20T15:58:04;3.20;;;2.17;;
42912;SDS011;50720;54.324;18.558;2023-12-20T16:00:48;4.13;;;2.70;;
42912;SDS011;50720;54.324;18.558;2023-12-20T16:03:31;4.60;;;2.58;;
42912;SDS011;50720;54.324;18.558;2023-12-20T16:06:26;5.07;;;2.17;;
42912;SDS011;50720;54.324;18.558;2023-12-20T16:09:09;7.97;;;2.80;;
42912;SDS011;50720;54.324;18.558;2023-12-20T16:11:54;7.63;;;3.03;;
42912;SDS011;50720;54.324;18.558;2023-12-20T16:14:37;3.88;;;2.53;;
42912;SDS011;50720;54.324;18.558;2023-12-20T16:17:21;7.47;;;2.88;;